Impacts TAF Board
For situational awareness. Not to be used for flight planning purposes.
IDs:

KLAS - Las Vegas/McCarran I, NV, US

Issued at 1736 UTC 19 May 2019
Updated at 2034 UTC 19 May 2019
Potential Impact None Slight Moderate High
Time<<20/21Z 20/22Z 20/23Z 21/00Z 21/01Z 21/02Z 21/03Z 21/04Z 21/05Z 21/06Z 21/07Z 21/08Z 21/09Z
Type PRVL PRVL PRVL
VIS >6 >6 >6
CIG 70 -- --
Cover BKN SCT SCT
FltCat VFR VFR VFR
WX -- -- --
WDir 360 240 240
WSpd 7 12 12
WGst -- 20 20
Raw TAF
KLAS 191736Z 1918/2024 22025G35KT P6SM FEW070 SCT120
  FM201000 26010G18KT P6SM BKN100
  FM201300 36007KT P6SM BKN070
  FM202200 24012G20KT P6SM SCT200


METAR Board
Radar Display
Forecast Discussion
For situational awareness. Not to be used for flight planning purposes.